createdAt,value
2023-02-03T00:00:59.046Z,99.99
2023-02-03T00:01:59.463Z,99.99
2023-02-03T00:02:59.810Z,99.99
2023-02-03T00:04:00.143Z,99.99
2023-02-03T00:05:00.452Z,99.99
2023-02-03T00:06:00.796Z,99.99
2023-02-03T00:07:01.168Z,99.99
2023-02-03T00:08:01.538Z,99.99
2023-02-03T00:09:01.896Z,99.99
2023-02-03T00:10:02.187Z,99.99
2023-02-03T00:11:02.538Z,99.99
2023-02-03T00:12:02.929Z,99.99
2023-02-03T00:13:03.229Z,99.99
2023-02-03T00:14:03.584Z,99.99
2023-02-03T00:15:03.918Z,99.99
2023-02-03T00:16:04.320Z,99.99
2023-02-03T00:17:04.626Z,99.99
2023-02-03T00:18:04.974Z,99.99
2023-02-03T00:19:05.365Z,99.99
2023-02-03T00:20:05.657Z,99.99
2023-02-03T00:21:06.014Z,99.99
2023-02-03T00:22:06.363Z,99.99
2023-02-03T00:23:06.700Z,99.99
2023-02-03T00:24:07.078Z,99.99
2023-02-03T00:25:07.403Z,99.99
2023-02-03T00:26:07.750Z,99.99
2023-02-03T00:27:08.106Z,99.99
2023-02-03T00:28:08.634Z,99.99
2023-02-03T00:29:08.773Z,99.99
2023-02-03T00:30:09.107Z,99.99
2023-02-03T00:31:09.554Z,99.99
2023-02-03T00:32:10.011Z,99.99
2023-02-03T00:33:10.160Z,99.99
2023-02-03T00:34:10.515Z,99.99
2023-02-03T00:35:10.849Z,99.99
2023-02-03T00:36:11.214Z,99.99
2023-02-03T00:37:11.541Z,99.99
2023-02-03T00:38:11.902Z,99.99
2023-02-03T00:39:12.199Z,99.99
2023-02-03T00:40:12.529Z,99.99
2023-02-03T00:41:12.875Z,99.99
2023-02-03T00:42:13.235Z,99.99
2023-02-03T00:43:13.571Z,99.99
2023-02-03T00:44:13.913Z,99.99
2023-02-03T00:45:14.249Z,99.99
2023-02-03T00:46:14.721Z,99.99
2023-02-03T00:47:14.979Z,99.99
2023-02-03T00:48:15.315Z,99.99
2023-02-03T00:49:15.645Z,99.99
2023-02-03T00:50:15.985Z,99.99
2023-02-03T00:51:16.330Z,99.99
2023-02-03T00:52:16.694Z,99.99
2023-02-03T00:53:17.031Z,99.99
2023-02-03T00:54:17.404Z,99.99
2023-02-03T00:55:17.739Z,99.99
2023-02-03T00:56:18.088Z,99.99
2023-02-03T00:57:18.450Z,99.99
2023-02-03T00:58:18.789Z,99.99
2023-02-03T00:59:19.125Z,99.99
2023-02-03T01:00:19.474Z,99.99
2023-02-03T01:01:19.843Z,99.99
2023-02-03T01:02:20.243Z,99.99
2023-02-03T01:03:20.525Z,99.99
2023-02-03T01:04:20.858Z,99.99
2023-02-03T01:05:21.200Z,99.99
2023-02-03T01:06:21.553Z,99.99
2023-02-03T01:07:21.920Z,99.99
2023-02-03T01:08:22.256Z,99.99
2023-02-03T01:09:22.592Z,99.99
2023-02-03T01:10:22.938Z,99.99
2023-02-03T01:11:23.271Z,99.99
2023-02-03T01:12:23.653Z,99.99
2023-02-03T01:13:23.967Z,99.99
2023-02-03T01:14:24.316Z,99.99
2023-02-03T01:15:24.659Z,99.99
2023-02-03T01:16:26.485Z,99.99
2023-02-03T01:17:25.399Z,99.99
2023-02-03T01:18:25.714Z,99.99
2023-02-03T01:19:26.068Z,99.99
2023-02-03T01:20:26.751Z,99.99
2023-02-03T01:21:26.793Z,99.99
2023-02-03T01:22:27.150Z,99.99
2023-02-03T01:23:27.497Z,99.99
2023-02-03T01:24:27.837Z,99.99
2023-02-03T01:25:28.175Z,99.99
2023-02-03T01:26:28.540Z,99.99
2023-02-03T01:27:28.921Z,99.99
2023-02-03T01:28:29.228Z,99.99
2023-02-03T01:29:29.586Z,99.99
2023-02-03T01:30:30.216Z,99.99
2023-02-03T01:31:30.576Z,99.99
2023-02-03T01:32:30.612Z,99.99
2023-02-03T01:33:30.949Z,99.99
2023-02-03T01:34:31.283Z,99.99
2023-02-03T01:35:31.630Z,99.99
2023-02-03T01:36:31.980Z,99.99
2023-02-03T01:37:32.332Z,99.99
2023-02-03T01:38:32.663Z,99.99
2023-02-03T01:39:33.013Z,99.99
2023-02-03T01:40:33.359Z,99.99
2023-02-03T01:41:33.703Z,99.99
2023-02-03T01:42:34.055Z,99.99
2023-02-03T01:43:34.414Z,99.99
2023-02-03T01:44:34.754Z,99.99
2023-02-03T01:45:35.105Z,99.99
2023-02-03T01:46:35.444Z,99.99
2023-02-03T01:47:35.807Z,99.99
2023-02-03T01:48:36.148Z,99.99
2023-02-03T01:49:36.503Z,99.99
2023-02-03T01:50:36.850Z,99.99
2023-02-03T01:51:37.253Z,99.99
2023-02-03T01:52:37.613Z,99.99
2023-02-03T01:53:37.927Z,99.99
2023-02-03T01:54:38.279Z,99.99
2023-02-03T01:55:38.635Z,99.99
2023-02-03T01:56:38.977Z,99.99
2023-02-03T01:57:39.378Z,99.99
2023-02-03T01:58:39.680Z,99.99
2023-02-03T01:59:40.067Z,99.99
2023-02-03T02:00:40.409Z,99.99
2023-02-03T02:01:40.793Z,99.99
2023-02-03T02:02:41.243Z,99.99
2023-02-03T02:03:41.512Z,99.99
2023-02-03T02:04:41.819Z,99.99
2023-02-03T02:05:42.149Z,99.99
2023-02-03T02:06:43.103Z,99.99
2023-02-03T02:07:42.864Z,99.99
2023-02-03T02:08:43.201Z,99.99
2023-02-03T02:09:43.545Z,99.99
2023-02-03T02:10:43.913Z,99.99
2023-02-03T02:11:44.252Z,99.99
2023-02-03T02:12:44.634Z,99.99
2023-02-03T02:13:44.950Z,99.99
2023-02-03T02:14:45.288Z,99.99
2023-02-03T02:15:45.736Z,99.99
2023-02-03T02:16:46.013Z,99.99
2023-02-03T02:17:46.375Z,99.99
2023-02-03T02:18:46.705Z,99.99
2023-02-03T02:19:47.084Z,99.99
2023-02-03T02:20:47.434Z,99.99
2023-02-03T02:21:47.777Z,99.99
2023-02-03T02:22:48.130Z,99.99
2023-02-03T02:23:48.468Z,99.99
2023-02-03T02:24:48.809Z,99.99
2023-02-03T02:25:49.183Z,99.99
2023-02-03T02:26:49.511Z,99.99
2023-02-03T02:27:49.959Z,99.99
2023-02-03T02:28:50.182Z,99.99
2023-02-03T02:29:50.526Z,99.99
2023-02-03T02:30:50.982Z,99.99
2023-02-03T02:31:51.483Z,99.99
2023-02-03T02:32:51.609Z,99.99
2023-02-03T02:33:51.961Z,99.99
2023-02-03T02:34:52.294Z,99.99
2023-02-03T02:35:52.623Z,99.99
2023-02-03T02:36:52.972Z,99.99
2023-02-03T02:37:53.343Z,99.99
2023-02-03T02:38:53.672Z,99.99
2023-02-03T02:39:53.999Z,99.99
2023-02-03T02:40:54.337Z,99.99
2023-02-03T02:41:54.676Z,99.99
2023-02-03T02:42:55.035Z,99.99
2023-02-03T02:44:01.869Z,99.99
2023-02-03T02:44:56.977Z,99.99
2023-02-03T02:45:57.848Z,99.99
2023-02-03T02:46:59.082Z,99.99
2023-02-03T02:47:56.794Z,99.99
2023-02-03T02:48:57.116Z,99.99
2023-02-03T02:49:57.462Z,99.99
2023-02-03T02:50:57.869Z,99.99
2023-02-03T02:51:58.161Z,99.99
2023-02-03T02:52:58.563Z,99.99
2023-02-03T02:53:58.866Z,99.99
2023-02-03T02:54:59.224Z,99.99
2023-02-03T02:55:59.564Z,99.99
2023-02-03T02:56:59.988Z,99.99
2023-02-03T02:58:00.284Z,99.99
2023-02-03T02:59:00.639Z,99.99
2023-02-03T03:00:00.986Z,99.99
2023-02-03T03:01:01.355Z,99.99
2023-02-03T03:02:01.723Z,99.99
2023-02-03T03:03:02.085Z,99.99
2023-02-03T03:04:02.403Z,99.99
2023-02-03T03:05:02.816Z,99.99
2023-02-03T03:06:03.087Z,99.99
2023-02-03T03:07:03.417Z,99.99
2023-02-03T03:08:03.810Z,99.99
2023-02-03T03:09:04.126Z,99.99
2023-02-03T03:10:04.485Z,99.99
2023-02-03T03:11:04.840Z,99.99
2023-02-03T03:12:05.171Z,99.99
2023-02-03T03:13:05.603Z,99.99
2023-02-03T03:14:05.859Z,99.99
2023-02-03T03:15:06.244Z,99.99
2023-02-03T03:16:06.602Z,99.99
2023-02-03T03:17:06.895Z,99.62
2023-02-03T03:18:07.265Z,99.72
2023-02-03T03:19:07.606Z,99.72
2023-02-03T03:20:08.040Z,99.99
2023-02-03T03:21:08.298Z,99.82
2023-02-03T03:22:08.696Z,99.99
2023-02-03T03:23:09.029Z,99.82
2023-02-03T03:24:09.357Z,99.62
2023-02-03T03:25:09.743Z,99.97
2023-02-03T03:26:10.123Z,99.99
2023-02-03T03:27:10.457Z,99.99
2023-02-03T03:28:10.922Z,99.31
2023-02-03T03:29:11.064Z,99.00
2023-02-03T03:30:11.422Z,99.51
2023-02-03T03:31:11.893Z,99.21
2023-02-03T03:32:12.131Z,99.41
2023-02-03T03:33:12.493Z,99.41
2023-02-03T03:34:12.840Z,98.90
2023-02-03T03:35:13.168Z,99.10
2023-02-03T03:36:13.483Z,99.10
2023-02-03T03:37:13.843Z,99.10
2023-02-03T03:38:14.226Z,99.00
2023-02-03T03:39:14.574Z,99.41
2023-02-03T03:40:15.398Z,99.51
2023-02-03T03:41:15.273Z,99.31
2023-02-03T03:42:15.571Z,99.21
2023-02-03T03:43:15.969Z,99.51
2023-02-03T03:44:16.277Z,99.62
2023-02-03T03:45:16.677Z,99.41
2023-02-03T03:46:16.985Z,99.21
2023-02-03T03:47:17.337Z,99.62
2023-02-03T03:48:17.768Z,99.82
2023-02-03T03:49:18.006Z,99.51
2023-02-03T03:50:18.361Z,99.41
2023-02-03T03:51:18.739Z,99.31
2023-02-03T03:52:19.081Z,98.90
2023-02-03T03:53:19.544Z,99.31
2023-02-03T03:54:19.795Z,99.62
2023-02-03T03:55:20.160Z,99.72
2023-02-03T03:56:20.510Z,99.41
2023-02-03T03:57:20.843Z,99.62
2023-02-03T03:58:21.217Z,99.31
2023-02-03T03:59:21.550Z,99.72
2023-02-03T04:00:21.892Z,99.93
2023-02-03T04:01:22.472Z,99.99
2023-02-03T04:02:22.766Z,99.99
2023-02-03T04:03:23.095Z,99.99
2023-02-03T04:04:23.368Z,99.99
2023-02-03T04:05:23.712Z,99.99
2023-02-03T04:06:24.029Z,99.99
2023-02-03T04:07:24.417Z,99.99
2023-02-03T04:08:24.791Z,99.99
2023-02-03T04:09:25.149Z,99.99
2023-02-03T04:10:25.837Z,99.99
2023-02-03T04:11:25.867Z,99.99
2023-02-03T04:12:26.281Z,99.99
2023-02-03T04:13:26.694Z,99.99
2023-02-03T04:14:26.910Z,99.99
2023-02-03T04:15:27.335Z,99.99
2023-02-03T04:16:27.742Z,99.99
2023-02-03T04:17:27.990Z,99.99
2023-02-03T04:18:28.312Z,99.99
2023-02-03T04:19:28.712Z,99.99
2023-02-03T04:20:29.352Z,99.99
2023-02-03T04:21:29.363Z,99.99
2023-02-03T04:22:29.737Z,99.99
2023-02-03T04:23:30.170Z,99.99
2023-02-03T04:24:30.517Z,99.99
2023-02-03T04:25:30.829Z,99.99
2023-02-03T04:26:31.187Z,99.99
2023-02-03T04:27:31.510Z,99.99
2023-02-03T04:28:31.897Z,99.99
2023-02-03T04:29:32.252Z,99.99
2023-02-03T04:30:32.565Z,99.99
2023-02-03T04:31:32.964Z,99.99
2023-02-03T04:32:33.260Z,99.99
2023-02-03T04:33:33.706Z,99.99
2023-02-03T04:34:34.050Z,99.99
2023-02-03T04:35:34.328Z,99.99
2023-02-03T04:36:34.679Z,99.99
2023-02-03T04:37:35.060Z,99.99
2023-02-03T04:38:35.395Z,99.99
2023-02-03T04:39:35.742Z,99.99
2023-02-03T04:40:36.187Z,99.99
2023-02-03T04:41:36.532Z,99.99
2023-02-03T04:42:36.807Z,99.99
2023-02-03T04:43:37.184Z,99.99
2023-02-03T04:44:37.489Z,99.99
2023-02-03T04:45:37.973Z,99.99
2023-02-03T04:46:38.220Z,99.99
2023-02-03T04:47:38.702Z,99.99
2023-02-03T04:48:38.993Z,99.99
2023-02-03T04:49:39.349Z,99.99
2023-02-03T04:50:39.653Z,99.99
2023-02-03T04:51:40.829Z,99.99
2023-02-03T04:52:40.403Z,99.99
2023-02-03T04:53:40.765Z,99.99
2023-02-03T04:54:41.062Z,99.99
2023-02-03T04:55:41.459Z,99.99
2023-02-03T04:56:41.790Z,99.99
2023-02-03T04:57:42.153Z,99.99
2023-02-03T04:58:42.535Z,99.99
2023-02-03T04:59:42.899Z,99.99
2023-02-03T05:00:43.228Z,99.99
2023-02-03T05:01:43.559Z,99.99
2023-02-03T05:02:43.937Z,99.99
2023-02-03T05:03:44.376Z,99.99
2023-02-03T05:04:44.649Z,99.99
2023-02-03T05:05:44.969Z,99.99
2023-02-03T05:06:45.263Z,99.99
2023-02-03T05:07:45.638Z,99.99
2023-02-03T05:08:45.968Z,99.99
2023-02-03T05:09:46.320Z,99.99
2023-02-03T05:10:46.727Z,99.99
2023-02-03T05:11:46.993Z,99.99
2023-02-03T05:12:47.319Z,99.99
2023-02-03T05:13:47.756Z,99.99
2023-02-03T05:14:48.088Z,99.99
2023-02-03T05:15:48.394Z,99.99
2023-02-03T05:16:48.888Z,99.99
2023-02-03T05:17:49.063Z,99.99
2023-02-03T05:18:49.431Z,99.99
2023-02-03T05:19:49.887Z,99.99
2023-02-03T05:20:50.207Z,99.99
2023-02-03T05:21:50.477Z,99.99
2023-02-03T05:22:50.833Z,99.99
2023-02-03T05:23:51.308Z,99.99
2023-02-03T05:24:51.531Z,99.99
2023-02-03T05:25:51.905Z,99.99
2023-02-03T05:26:52.298Z,99.99
2023-02-03T05:27:52.648Z,99.99
2023-02-03T05:28:54.154Z,99.99
2023-02-03T05:29:53.296Z,99.99
2023-02-03T05:30:53.621Z,99.99
2023-02-03T05:31:54.029Z,99.99
2023-02-03T05:32:54.298Z,99.99
2023-02-03T05:33:54.714Z,99.99
2023-02-03T05:34:54.986Z,99.99
2023-02-03T05:35:55.453Z,99.99
2023-02-03T05:36:55.722Z,99.99
2023-02-03T05:37:56.054Z,99.99
2023-02-03T05:38:56.483Z,99.99
2023-02-03T05:39:56.777Z,99.99
2023-02-03T05:40:57.088Z,99.99
2023-02-03T05:41:58.607Z,99.99
2023-02-03T05:42:57.796Z,99.99
2023-02-03T05:43:58.215Z,99.99
2023-02-03T05:44:58.502Z,99.99
2023-02-03T05:45:58.945Z,99.99
2023-02-03T05:46:59.149Z,99.99
2023-02-03T05:47:59.484Z,99.99
2023-02-03T05:48:59.875Z,99.99
2023-02-03T05:50:00.190Z,99.99
2023-02-03T05:51:00.645Z,99.99
2023-02-03T05:52:00.897Z,99.99
2023-02-03T05:53:01.234Z,99.99
2023-02-03T05:54:01.603Z,99.99
2023-02-03T05:55:01.968Z,99.99
2023-02-03T05:56:02.290Z,99.99
2023-02-03T05:57:02.791Z,99.99
2023-02-03T05:58:02.963Z,99.99
2023-02-03T05:59:03.324Z,99.99
2023-02-03T06:00:03.669Z,99.99
2023-02-03T06:01:04.008Z,99.99
2023-02-03T06:02:04.349Z,99.99
2023-02-03T06:03:04.751Z,99.99
2023-02-03T06:04:05.258Z,99.99
2023-02-03T06:05:05.451Z,99.99
2023-02-03T06:06:05.766Z,99.99
2023-02-03T06:07:06.092Z,99.99
2023-02-03T06:08:06.444Z,99.99
2023-02-03T06:09:06.831Z,99.99
2023-02-03T06:10:07.120Z,99.99
2023-02-03T06:11:07.455Z,99.99
2023-02-03T06:12:07.790Z,99.99
2023-02-03T06:13:08.170Z,99.99
2023-02-03T06:14:08.544Z,99.99
2023-02-03T06:15:08.824Z,99.99
2023-02-03T06:16:09.166Z,99.99
2023-02-03T06:17:09.508Z,99.99
2023-02-03T06:18:09.889Z,99.99
2023-02-03T06:19:10.207Z,99.99
2023-02-03T06:20:10.543Z,99.99
2023-02-03T06:21:10.895Z,99.99
2023-02-03T06:22:11.211Z,99.99
2023-02-03T06:23:11.548Z,99.99
2023-02-03T06:24:11.912Z,99.99
2023-02-03T06:25:13.269Z,99.99
2023-02-03T06:26:12.615Z,99.99
2023-02-03T06:27:12.991Z,99.99
2023-02-03T06:28:13.342Z,99.99
2023-02-03T06:29:13.670Z,99.99
2023-02-03T06:30:14.072Z,99.99
2023-02-03T06:31:14.522Z,99.99
2023-02-03T06:32:14.763Z,99.99
2023-02-03T06:33:15.059Z,99.99
2023-02-03T06:34:15.417Z,99.99
2023-02-03T06:35:15.754Z,99.99
2023-02-03T06:36:16.107Z,99.99
2023-02-03T06:37:16.486Z,99.99
2023-02-03T06:38:16.814Z,99.99
2023-02-03T06:39:17.173Z,99.99
2023-02-03T06:40:17.500Z,99.99
2023-02-03T06:41:17.853Z,99.99
2023-02-03T06:42:18.195Z,99.99
2023-02-03T06:43:18.558Z,99.99
2023-02-03T06:44:18.930Z,99.99
2023-02-03T06:45:19.275Z,99.99
2023-02-03T06:46:19.721Z,99.99
2023-02-03T06:47:20.024Z,99.99
2023-02-03T06:48:20.345Z,99.99
2023-02-03T06:49:20.709Z,99.99
2023-02-03T06:50:21.017Z,99.99
2023-02-03T06:51:21.357Z,99.99
2023-02-03T06:52:21.725Z,99.99
2023-02-03T06:53:22.060Z,99.99
2023-02-03T06:54:22.428Z,99.99
2023-02-03T06:55:22.918Z,99.99
2023-02-03T06:56:23.117Z,99.99
2023-02-03T06:57:23.483Z,99.99
2023-02-03T06:58:23.823Z,99.99
2023-02-03T06:59:24.247Z,99.99
2023-02-03T07:00:24.661Z,99.99
2023-02-03T07:01:24.912Z,99.99
2023-02-03T07:02:25.263Z,99.99
2023-02-03T07:03:25.579Z,99.99
2023-02-03T07:04:25.929Z,99.99
2023-02-03T07:05:26.288Z,99.99
2023-02-03T07:06:26.655Z,99.99
2023-02-03T07:07:27.006Z,99.99
2023-02-03T07:08:27.355Z,99.99
2023-02-03T07:09:27.704Z,99.99
2023-02-03T07:10:28.366Z,99.99
2023-02-03T07:11:28.423Z,99.99
2023-02-03T07:12:29.327Z,99.99
2023-02-03T07:13:29.177Z,99.99
2023-02-03T07:14:29.547Z,99.99
2023-02-03T07:15:29.938Z,99.99
2023-02-03T07:16:30.221Z,99.99
2023-02-03T07:17:30.599Z,99.99
2023-02-03T07:18:46.392Z,99.99
2023-02-03T07:19:31.233Z,99.99
2023-02-03T07:20:31.393Z,99.99
2023-02-03T07:21:31.668Z,99.99
2023-02-03T07:22:31.920Z,99.99
2023-02-03T07:23:32.211Z,99.99
2023-02-03T07:24:32.560Z,99.99
2023-02-03T07:25:32.791Z,99.99
2023-02-03T07:26:33.095Z,99.99
2023-02-03T07:27:33.382Z,99.99
2023-02-03T07:28:33.759Z,99.99
2023-02-03T07:29:34.026Z,99.99
2023-02-03T07:30:34.421Z,99.99
2023-02-03T07:31:34.795Z,99.99
2023-02-03T07:32:34.957Z,99.99
2023-02-03T07:33:35.243Z,99.99
2023-02-03T07:34:35.547Z,99.99
2023-02-03T07:35:35.916Z,99.99
2023-02-03T07:36:36.050Z,99.99
2023-02-03T07:37:36.304Z,99.99
2023-02-03T07:38:36.597Z,99.99
2023-02-03T07:39:36.900Z,99.99
2023-02-03T07:40:37.234Z,99.99
2023-02-03T07:41:37.418Z,99.99
2023-02-03T07:42:37.773Z,99.99
2023-02-03T07:43:37.914Z,99.99
2023-02-03T07:44:38.215Z,99.99
2023-02-03T07:45:38.489Z,99.99
2023-02-03T07:46:38.787Z,99.99
2023-02-03T07:47:39.067Z,99.99
2023-02-03T07:48:39.351Z,99.99
2023-02-03T07:49:39.684Z,99.99
2023-02-03T07:50:39.960Z,99.99
2023-02-03T07:51:40.233Z,99.99
2023-02-03T07:52:40.548Z,99.99
2023-02-03T07:53:40.823Z,99.99
2023-02-03T07:54:41.132Z,99.99
2023-02-03T07:55:41.297Z,99.99
2023-02-03T07:56:41.469Z,99.99
2023-02-03T07:57:41.767Z,99.99
2023-02-03T07:58:42.047Z,99.99
2023-02-03T07:59:42.338Z,99.99
2023-02-03T08:00:42.811Z,99.99
2023-02-03T08:01:42.952Z,99.99
2023-02-03T08:02:43.169Z,99.99
2023-02-03T08:03:43.482Z,99.99
2023-02-03T08:04:43.807Z,99.99
2023-02-03T08:05:44.085Z,99.99
2023-02-03T08:06:44.189Z,99.99
2023-02-03T08:07:44.525Z,99.99
2023-02-03T08:08:44.645Z,99.99
2023-02-03T08:09:44.977Z,99.99
2023-02-03T08:10:45.243Z,99.99
2023-02-03T08:11:45.540Z,99.99
2023-02-03T08:12:45.810Z,99.99
2023-02-03T08:13:45.978Z,99.99
2023-02-03T08:14:46.388Z,99.99
2023-02-03T08:15:46.500Z,99.99
2023-02-03T08:16:46.723Z,99.99
2023-02-03T08:17:46.992Z,99.99
2023-02-03T08:18:47.317Z,99.99
2023-02-03T08:19:47.543Z,99.99
2023-02-03T08:20:47.826Z,99.99
2023-02-03T08:21:48.165Z,99.99
2023-02-03T08:22:48.425Z,99.99
2023-02-03T08:23:48.729Z,99.99
2023-02-03T08:24:49.035Z,99.99
2023-02-03T08:25:49.298Z,99.99
2023-02-03T08:26:49.587Z,99.99
2023-02-03T08:27:49.960Z,99.72
2023-02-03T08:28:50.082Z,98.28
2023-02-03T08:29:50.360Z,96.47
2023-02-03T08:30:50.660Z,97.24
2023-02-03T08:31:51.069Z,95.08
2023-02-03T08:32:51.173Z,94.46
2023-02-03T08:33:51.522Z,93.33
2023-02-03T08:34:51.651Z,93.43
2023-02-03T08:35:51.940Z,92.40
2023-02-03T08:36:52.120Z,91.17
2023-02-03T08:37:52.430Z,90.96
2023-02-03T08:38:52.676Z,91.06
2023-02-03T08:39:52.904Z,91.17
2023-02-03T08:40:53.013Z,89.28
2023-02-03T08:41:53.324Z,90.14
2023-02-03T08:42:53.484Z,91.27
2023-02-03T08:43:53.791Z,90.03
2023-02-03T08:44:53.980Z,88.24
2023-02-03T08:45:54.159Z,87.94
2023-02-03T08:46:54.393Z,86.70
2023-02-03T08:47:54.569Z,87.73
2023-02-03T08:48:54.758Z,86.70
2023-02-03T08:49:54.935Z,85.88
2023-02-03T08:50:55.073Z,86.40
2023-02-03T08:51:55.408Z,86.29
2023-02-03T08:52:55.574Z,85.68
2023-02-03T08:53:55.705Z,86.08
2023-02-03T08:54:55.921Z,86.80
2023-02-03T08:55:56.051Z,85.98
2023-02-03T08:56:56.209Z,87.01
2023-02-03T08:57:56.528Z,87.12
2023-02-03T08:58:56.670Z,87.52
2023-02-03T08:59:57.059Z,87.22
2023-02-03T09:00:57.308Z,87.73
2023-02-03T09:01:57.423Z,88.24
2023-02-03T09:02:57.712Z,88.66
2023-02-03T09:03:57.903Z,88.96
2023-02-03T09:04:58.193Z,88.45
2023-02-03T09:05:58.336Z,88.96
2023-02-03T09:06:58.642Z,89.38
2023-02-03T09:07:58.860Z,89.48
2023-02-03T09:08:59.103Z,89.69
2023-02-03T09:09:59.319Z,89.58
2023-02-03T09:10:59.575Z,90.41
2023-02-03T09:11:59.766Z,90.20
2023-02-03T09:12:59.949Z,91.23
2023-02-03T09:14:00.151Z,91.74
2023-02-03T09:15:00.286Z,92.36
2023-02-03T09:16:00.432Z,92.36
2023-02-03T09:17:00.644Z,92.36
2023-02-03T09:18:00.775Z,92.36
2023-02-03T09:19:01.098Z,92.46
2023-02-03T09:20:01.321Z,92.77
2023-02-03T09:21:01.441Z,93.70
2023-02-03T09:22:01.696Z,93.80
2023-02-03T09:23:01.842Z,93.80
2023-02-03T09:24:02.016Z,94.01
2023-02-03T09:25:02.279Z,92.93
2023-02-03T09:26:02.369Z,93.35
2023-02-03T09:27:02.550Z,93.80
2023-02-03T09:28:02.770Z,93.14
2023-02-03T09:29:02.983Z,93.14
2023-02-03T09:30:03.167Z,92.83
2023-02-03T09:31:03.427Z,92.73
2023-02-03T09:32:03.650Z,93.35
2023-02-03T09:33:03.805Z,91.80
2023-02-03T09:34:04.129Z,91.70
2023-02-03T09:35:04.276Z,90.73
2023-02-03T09:36:04.408Z,91.39
2023-02-03T09:37:04.603Z,91.49
2023-02-03T09:38:04.749Z,90.22
2023-02-03T09:39:04.916Z,89.50
2023-02-03T09:40:05.109Z,88.98
2023-02-03T09:41:11.657Z,88.57
2023-02-03T09:42:05.461Z,89.19
2023-02-03T09:43:05.606Z,89.60
2023-02-03T09:44:05.884Z,89.09
2023-02-03T09:45:06.189Z,89.40
2023-02-03T09:46:06.428Z,89.91
2023-02-03T09:47:08.858Z,90.22
2023-02-03T09:48:06.854Z,89.50
2023-02-03T09:49:07.078Z,90.42
2023-02-03T09:50:07.283Z,90.32
2023-02-03T09:51:07.420Z,90.01
2023-02-03T09:52:07.598Z,90.53
2023-02-03T09:53:07.773Z,91.14
2023-02-03T09:54:07.974Z,91.66
2023-02-03T09:55:08.146Z,91.76
2023-02-03T09:56:08.416Z,91.86
2023-02-03T09:57:09.990Z,91.86
2023-02-03T09:58:08.884Z,89.91
2023-02-03T09:59:09.135Z,90.42
2023-02-03T10:00:09.480Z,90.83
2023-02-03T10:01:09.683Z,91.25
2023-02-03T10:02:09.938Z,90.12
2023-02-03T10:03:10.191Z,89.70
2023-02-03T10:04:10.382Z,88.37
2023-02-03T10:05:10.559Z,87.51
2023-02-03T10:06:10.748Z,88.06
2023-02-03T10:07:11.042Z,88.17
2023-02-03T10:08:11.369Z,87.96
2023-02-03T10:09:11.690Z,87.85
2023-02-03T10:10:12.006Z,87.96
2023-02-03T10:11:12.294Z,87.85
2023-02-03T10:12:12.539Z,88.06
2023-02-03T10:13:12.852Z,87.55
2023-02-03T10:14:13.003Z,87.13
2023-02-03T10:15:13.348Z,87.13
2023-02-03T10:16:13.470Z,86.93
2023-02-03T10:17:13.814Z,87.04
2023-02-03T10:18:13.825Z,87.45
2023-02-03T10:19:14.168Z,87.96
2023-02-03T10:20:14.319Z,88.06
2023-02-03T10:21:14.495Z,87.45
2023-02-03T10:22:14.885Z,86.72
2023-02-03T10:23:14.973Z,85.70
2023-02-03T10:24:15.297Z,84.88
2023-02-03T10:25:15.516Z,85.49
2023-02-03T10:26:15.741Z,85.49
2023-02-03T10:27:15.993Z,86.00
2023-02-03T10:28:16.279Z,85.80
2023-02-03T10:29:16.388Z,85.49
2023-02-03T10:30:16.722Z,85.18
2023-02-03T10:31:17.041Z,85.49
2023-02-03T10:32:17.233Z,84.26
2023-02-03T10:33:17.433Z,84.56
2023-02-03T10:34:17.781Z,84.47
2023-02-03T10:35:18.073Z,84.05
2023-02-03T10:36:18.202Z,84.47
2023-02-03T10:37:18.524Z,83.09
2023-02-03T10:38:18.810Z,83.29
2023-02-03T10:39:19.142Z,84.05
2023-02-03T10:40:19.297Z,84.01
2023-02-03T10:41:19.706Z,83.70
2023-02-03T10:42:19.879Z,84.12
2023-02-03T10:43:20.170Z,83.61
2023-02-03T10:44:20.372Z,83.29
2023-02-03T10:45:20.663Z,83.29
2023-02-03T10:46:21.102Z,84.01
2023-02-03T10:47:21.244Z,84.12
2023-02-03T10:48:21.567Z,84.32
2023-02-03T10:49:21.863Z,83.70
2023-02-03T10:50:22.184Z,83.50
2023-02-03T10:51:22.429Z,83.40
2023-02-03T10:52:22.729Z,82.17
2023-02-03T10:53:22.900Z,83.09
2023-02-03T10:54:23.196Z,83.40
2023-02-03T10:55:23.498Z,82.99
2023-02-03T10:56:23.656Z,81.86
2023-02-03T10:57:23.973Z,82.17
2023-02-03T10:58:24.291Z,82.27
2023-02-03T10:59:24.554Z,81.45
2023-02-03T11:00:24.872Z,81.76
2023-02-03T11:01:25.097Z,82.27
2023-02-03T11:02:25.404Z,80.83
2023-02-03T11:03:25.615Z,81.04
2023-02-03T11:04:25.900Z,80.63
2023-02-03T11:05:26.305Z,80.11
2023-02-03T11:06:26.404Z,79.97
2023-02-03T11:07:26.671Z,79.15
2023-02-03T11:08:26.986Z,79.77
2023-02-03T11:09:27.160Z,78.53
2023-02-03T11:10:27.813Z,79.05
2023-02-03T11:11:27.627Z,80.28
2023-02-03T11:12:27.915Z,80.18
2023-02-03T11:13:28.094Z,79.87
2023-02-03T11:14:28.410Z,78.64
2023-02-03T11:15:29.026Z,78.43
2023-02-03T11:16:28.869Z,78.64
2023-02-03T11:17:29.030Z,79.36
2023-02-03T11:18:29.320Z,80.38
2023-02-03T11:19:29.661Z,78.85
2023-02-03T11:20:30.321Z,79.56
2023-02-03T11:21:30.199Z,80.18
2023-02-03T11:22:30.392Z,79.66
2023-02-03T11:23:30.696Z,80.18
2023-02-03T11:24:31.017Z,80.58
2023-02-03T11:25:31.361Z,81.41
2023-02-03T11:26:31.466Z,81.62
2023-02-03T11:27:31.757Z,81.41
2023-02-03T11:28:31.965Z,81.62
2023-02-03T11:29:32.176Z,81.71
2023-02-03T11:30:32.511Z,82.47
2023-02-03T11:31:32.886Z,82.89
2023-02-03T11:32:33.024Z,83.29
2023-02-03T11:33:33.340Z,83.09
2023-02-03T11:34:33.655Z,82.57
2023-02-03T11:35:33.912Z,82.27
2023-02-03T11:36:34.201Z,82.78
2023-02-03T11:37:34.496Z,82.54
2023-02-03T11:38:34.776Z,82.84
2023-02-03T11:39:35.076Z,81.92
2023-02-03T11:40:35.393Z,82.84
2023-02-03T11:41:35.667Z,83.56
2023-02-03T11:42:35.950Z,81.92
2023-02-03T11:43:36.319Z,81.71
2023-02-03T11:44:36.458Z,81.96
2023-02-03T11:45:36.632Z,82.47
2023-02-03T11:46:36.845Z,83.09
2023-02-03T11:47:36.983Z,83.19
2023-02-03T11:48:37.186Z,82.17
2023-02-03T11:49:37.341Z,82.06
2023-02-03T11:50:37.817Z,82.57
2023-02-03T11:51:37.915Z,82.99
2023-02-03T11:52:38.092Z,82.99
2023-02-03T11:53:51.291Z,83.29
2023-02-03T11:54:38.727Z,81.65
2023-02-03T11:55:38.954Z,82.17
2023-02-03T11:56:39.386Z,82.06
2023-02-03T11:57:39.476Z,81.86
2023-02-03T11:58:39.637Z,81.76
2023-02-03T11:59:40.917Z,81.65
2023-02-03T12:00:40.247Z,81.65
2023-02-03T12:01:40.526Z,81.34
2023-02-03T12:02:40.931Z,81.04
2023-02-03T12:03:41.246Z,81.34
2023-02-03T12:04:41.352Z,82.17
2023-02-03T12:05:41.614Z,82.17
2023-02-03T12:06:41.911Z,82.27
2023-02-03T12:07:42.237Z,81.86
2023-02-03T12:08:42.474Z,81.86
2023-02-03T12:09:42.796Z,82.06
2023-02-03T12:10:42.958Z,82.57
2023-02-03T12:11:43.327Z,82.47
2023-02-03T12:12:43.528Z,82.89
2023-02-03T12:13:43.814Z,83.19
2023-02-03T12:14:44.114Z,83.09
2023-02-03T12:15:44.516Z,82.89
2023-02-03T12:16:44.584Z,83.50
2023-02-03T12:17:44.921Z,82.57
2023-02-03T12:18:45.093Z,81.96
2023-02-03T12:19:45.369Z,81.24
2023-02-03T12:20:45.624Z,81.65
2023-02-03T12:21:45.836Z,81.86
2023-02-03T12:22:46.146Z,81.86
2023-02-03T12:23:46.354Z,81.76
2023-02-03T12:24:46.645Z,82.17
2023-02-03T12:25:46.965Z,81.24
2023-02-03T12:26:47.212Z,80.93
2023-02-03T12:27:47.450Z,81.45
2023-02-03T12:28:47.584Z,81.34
2023-02-03T12:29:47.896Z,82.17
2023-02-03T12:30:48.243Z,82.06
2023-02-03T12:31:48.570Z,82.57
2023-02-03T12:32:48.805Z,81.96
2023-02-03T12:33:48.943Z,82.27
2023-02-03T12:34:49.149Z,82.37
2023-02-03T12:35:49.435Z,81.96
2023-02-03T12:36:49.718Z,82.17
2023-02-03T12:37:49.918Z,81.55
2023-02-03T12:38:50.219Z,81.65
2023-02-03T12:39:50.529Z,81.34
2023-02-03T12:40:50.800Z,81.55
2023-02-03T12:41:51.019Z,81.76
2023-02-03T12:42:51.154Z,81.76
2023-02-03T12:43:51.435Z,82.00
2023-02-03T12:44:51.635Z,82.51
2023-02-03T12:45:52.040Z,81.86
2023-02-03T12:46:52.211Z,81.90
2023-02-03T12:47:52.506Z,82.20
2023-02-03T12:48:52.819Z,81.90
2023-02-03T12:49:53.059Z,82.51
2023-02-03T12:50:53.308Z,81.90
2023-02-03T12:51:53.483Z,81.48
2023-02-03T12:52:53.664Z,80.97
2023-02-03T12:53:53.849Z,80.97
2023-02-03T12:54:54.111Z,80.66
2023-02-03T12:55:54.289Z,80.87
2023-02-03T12:56:54.481Z,81.48